sensor_id;sensor_type;location;lat;lon;timestamp;P1;durP1;ratioP1;P2;durP2;ratioP2
9445;SDS011;4761;49.490;10.908;2023-07-09T00:00:20;5.38;;;4.88;;
9445;SDS011;4761;49.490;10.908;2023-07-09T00:02:45;5.15;;;4.65;;
9445;SDS011;4761;49.490;10.908;2023-07-09T00:05:14;6.00;;;5.00;;
9445;SDS011;4761;49.490;10.908;2023-07-09T00:07:41;5.95;;;5.35;;
9445;SDS011;4761;49.490;10.908;2023-07-09T00:10:12;5.50;;;5.00;;
9445;SDS011;4761;49.490;10.908;2023-07-09T00:12:39;5.53;;;4.95;;
9445;SDS011;4761;49.490;10.908;2023-07-09T00:15:05;5.53;;;5.03;;
9445;SDS011;4761;49.490;10.908;2023-07-09T00:17:34;5.47;;;4.97;;
9445;SDS011;4761;49.490;10.908;2023-07-09T00:20:00;5.68;;;4.78;;
9445;SDS011;4761;49.490;10.908;2023-07-09T00:22:29;4.70;;;4.30;;
9445;SDS011;4761;49.490;10.908;2023-07-09T00:24:55;5.07;;;4.60;;
9445;SDS011;4761;49.490;10.908;2023-07-09T00:27:21;5.55;;;5.05;;
9445;SDS011;4761;49.490;10.908;2023-07-09T00:29:50;5.53;;;5.03;;
9445;SDS011;4761;49.490;10.908;2023-07-09T00:32:18;5.65;;;5.07;;
9445;SDS011;4761;49.490;10.908;2023-07-09T00:34:50;5.72;;;5.22;;
9445;SDS011;4761;49.490;10.908;2023-07-09T00:37:19;5.47;;;4.85;;
9445;SDS011;4761;49.490;10.908;2023-07-09T00:39:50;5.45;;;4.95;;
9445;SDS011;4761;49.490;10.908;2023-07-09T00:42:17;5.40;;;4.90;;
9445;SDS011;4761;49.490;10.908;2023-07-09T00:44:45;5.45;;;4.85;;
9445;SDS011;4761;49.490;10.908;2023-07-09T00:47:20;5.43;;;4.90;;
9445;SDS011;4761;49.490;10.908;2023-07-09T00:52:51;4.93;;;4.43;;
9445;SDS011;4761;49.490;10.908;2023-07-09T00:55:20;5.15;;;4.68;;
9445;SDS011;4761;49.490;10.908;2023-07-09T00:57:55;6.07;;;5.47;;
9445;SDS011;4761;49.490;10.908;2023-07-09T01:00:27;5.22;;;4.72;;
9445;SDS011;4761;49.490;10.908;2023-07-09T01:03:03;5.05;;;4.55;;
9445;SDS011;4761;49.490;10.908;2023-07-09T01:05:29;5.03;;;4.60;;
9445;SDS011;4761;49.490;10.908;2023-07-09T01:07:55;5.35;;;4.85;;
9445;SDS011;4761;49.490;10.908;2023-07-09T01:10:23;5.82;;;4.70;;
9445;SDS011;4761;49.490;10.908;2023-07-09T01:12:49;5.25;;;4.75;;
9445;SDS011;4761;49.490;10.908;2023-07-09T01:15:15;5.40;;;4.90;;
9445;SDS011;4761;49.490;10.908;2023-07-09T01:17:41;5.00;;;4.50;;
9445;SDS011;4761;49.490;10.908;2023-07-09T01:20:14;5.22;;;4.72;;
9445;SDS011;4761;49.490;10.908;2023-07-09T01:22:46;5.47;;;4.97;;
9445;SDS011;4761;49.490;10.908;2023-07-09T01:25:15;5.80;;;5.20;;
9445;SDS011;4761;49.490;10.908;2023-07-09T01:27:42;5.32;;;4.82;;
9445;SDS011;4761;49.490;10.908;2023-07-09T01:30:18;5.68;;;5.10;;
9445;SDS011;4761;49.490;10.908;2023-07-09T01:32:49;4.97;;;4.57;;
9445;SDS011;4761;49.490;10.908;2023-07-09T01:35:16;5.15;;;4.47;;
9445;SDS011;4761;49.490;10.908;2023-07-09T01:37:44;5.00;;;4.50;;
9445;SDS011;4761;49.490;10.908;2023-07-09T01:40:10;5.32;;;4.82;;
9445;SDS011;4761;49.490;10.908;2023-07-09T01:42:39;5.93;;;5.32;;
9445;SDS011;4761;49.490;10.908;2023-07-09T01:45:06;5.53;;;4.65;;
9445;SDS011;4761;49.490;10.908;2023-07-09T01:47:34;5.00;;;4.60;;
9445;SDS011;4761;49.490;10.908;2023-07-09T01:50:01;5.13;;;4.68;;
9445;SDS011;4761;49.490;10.908;2023-07-09T01:52:28;5.30;;;4.80;;
9445;SDS011;4761;49.490;10.908;2023-07-09T01:54:56;5.60;;;5.10;;
9445;SDS011;4761;49.490;10.908;2023-07-09T01:57:23;5.03;;;4.63;;
9445;SDS011;4761;49.490;10.908;2023-07-09T02:00:01;4.97;;;4.57;;
9445;SDS011;4761;49.490;10.908;2023-07-09T02:02:39;4.82;;;4.43;;
9445;SDS011;4761;49.490;10.908;2023-07-09T02:05:07;5.10;;;4.60;;
9445;SDS011;4761;49.490;10.908;2023-07-09T02:07:34;5.63;;;5.03;;
9445;SDS011;4761;49.490;10.908;2023-07-09T02:10:00;5.60;;;5.10;;
9445;SDS011;4761;49.490;10.908;2023-07-09T02:12:25;5.10;;;4.60;;
9445;SDS011;4761;49.490;10.908;2023-07-09T02:14:51;5.07;;;4.60;;
9445;SDS011;4761;49.490;10.908;2023-07-09T02:17:16;5.35;;;4.85;;
9445;SDS011;4761;49.490;10.908;2023-07-09T02:19:42;5.38;;;4.88;;
9445;SDS011;4761;49.490;10.908;2023-07-09T02:22:08;5.70;;;5.10;;
9445;SDS011;4761;49.490;10.908;2023-07-09T02:24:35;5.72;;;5.15;;
9445;SDS011;4761;49.490;10.908;2023-07-09T02:27:01;5.55;;;5.05;;
9445;SDS011;4761;49.490;10.908;2023-07-09T02:29:28;4.93;;;4.53;;
9445;SDS011;4761;49.490;10.908;2023-07-09T02:31:55;5.38;;;4.88;;
9445;SDS011;4761;49.490;10.908;2023-07-09T02:34:22;5.30;;;4.80;;
9445;SDS011;4761;49.490;10.908;2023-07-09T02:36:51;5.60;;;5.10;;
9445;SDS011;4761;49.490;10.908;2023-07-09T02:39:20;4.93;;;4.53;;
9445;SDS011;4761;49.490;10.908;2023-07-09T02:41:47;5.25;;;4.75;;
9445;SDS011;4761;49.490;10.908;2023-07-09T02:44:13;5.72;;;4.82;;
9445;SDS011;4761;49.490;10.908;2023-07-09T02:46:39;5.15;;;4.75;;
9445;SDS011;4761;49.490;10.908;2023-07-09T02:49:05;4.82;;;4.43;;
9445;SDS011;4761;49.490;10.908;2023-07-09T02:51:31;4.90;;;4.50;;
9445;SDS011;4761;49.490;10.908;2023-07-09T02:53:57;5.38;;;4.88;;
9445;SDS011;4761;49.490;10.908;2023-07-09T02:56:24;5.50;;;5.00;;
9445;SDS011;4761;49.490;10.908;2023-07-09T02:58:51;5.70;;;5.10;;
9445;SDS011;4761;49.490;10.908;2023-07-09T03:01:17;5.55;;;5.05;;
9445;SDS011;4761;49.490;10.908;2023-07-09T03:03:42;5.15;;;4.65;;
9445;SDS011;4761;49.490;10.908;2023-07-09T03:06:08;5.38;;;4.85;;
9445;SDS011;4761;49.490;10.908;2023-07-09T03:08:34;5.13;;;4.65;;
9445;SDS011;4761;49.490;10.908;2023-07-09T03:11:00;5.30;;;4.80;;
9445;SDS011;4761;49.490;10.908;2023-07-09T03:13:34;5.75;;;5.18;;
9445;SDS011;4761;49.490;10.908;2023-07-09T03:16:00;5.45;;;4.95;;
9445;SDS011;4761;49.490;10.908;2023-07-09T03:18:25;5.68;;;5.18;;
9445;SDS011;4761;49.490;10.908;2023-07-09T03:20:51;5.28;;;4.78;;
9445;SDS011;4761;49.490;10.908;2023-07-09T03:23:16;5.57;;;5.07;;
9445;SDS011;4761;49.490;10.908;2023-07-09T03:25:42;5.25;;;4.78;;
9445;SDS011;4761;49.490;10.908;2023-07-09T03:28:09;6.03;;;5.43;;
9445;SDS011;4761;49.490;10.908;2023-07-09T03:30:39;5.32;;;4.93;;
9445;SDS011;4761;49.490;10.908;2023-07-09T03:33:06;5.68;;;5.18;;
9445;SDS011;4761;49.490;10.908;2023-07-09T03:35:31;5.60;;;5.00;;
9445;SDS011;4761;49.490;10.908;2023-07-09T03:37:57;5.82;;;5.22;;
9445;SDS011;4761;49.490;10.908;2023-07-09T03:40:22;5.03;;;4.63;;
9445;SDS011;4761;49.490;10.908;2023-07-09T03:42:48;5.85;;;5.13;;
9445;SDS011;4761;49.490;10.908;2023-07-09T03:45:14;5.50;;;5.00;;
9445;SDS011;4761;49.490;10.908;2023-07-09T03:47:39;5.45;;;5.05;;
9445;SDS011;4761;49.490;10.908;2023-07-09T03:50:06;5.25;;;4.75;;
9445;SDS011;4761;49.490;10.908;2023-07-09T03:52:33;5.70;;;5.05;;
9445;SDS011;4761;49.490;10.908;2023-07-09T03:54:58;5.50;;;5.00;;
9445;SDS011;4761;49.490;10.908;2023-07-09T03:57:26;5.25;;;4.82;;
9445;SDS011;4761;49.490;10.908;2023-07-09T03:59:52;5.63;;;5.03;;
9445;SDS011;4761;49.490;10.908;2023-07-09T04:02:17;5.47;;;4.97;;
9445;SDS011;4761;49.490;10.908;2023-07-09T04:04:43;6.30;;;4.80;;
9445;SDS011;4761;49.490;10.908;2023-07-09T04:07:08;5.68;;;5.07;;
9445;SDS011;4761;49.490;10.908;2023-07-09T04:09:34;5.50;;;5.00;;
9445;SDS011;4761;49.490;10.908;2023-07-09T04:11:59;6.10;;;5.50;;
9445;SDS011;4761;49.490;10.908;2023-07-09T04:14:26;5.45;;;4.95;;
9445;SDS011;4761;49.490;10.908;2023-07-09T04:16:52;6.00;;;5.40;;
9445;SDS011;4761;49.490;10.908;2023-07-09T04:19:18;6.00;;;5.40;;
9445;SDS011;4761;49.490;10.908;2023-07-09T04:21:43;5.68;;;5.07;;
9445;SDS011;4761;49.490;10.908;2023-07-09T04:24:09;5.78;;;5.25;;
9445;SDS011;4761;49.490;10.908;2023-07-09T04:26:34;5.63;;;5.10;;
9445;SDS011;4761;49.490;10.908;2023-07-09T04:29:00;5.25;;;4.75;;
9445;SDS011;4761;49.490;10.908;2023-07-09T04:31:26;5.70;;;5.10;;
9445;SDS011;4761;49.490;10.908;2023-07-09T04:33:51;7.93;;;5.03;;
9445;SDS011;4761;49.490;10.908;2023-07-09T04:36:17;5.68;;;5.13;;
9445;SDS011;4761;49.490;10.908;2023-07-09T04:38:43;5.68;;;5.18;;
9445;SDS011;4761;49.490;10.908;2023-07-09T04:41:08;5.45;;;4.95;;
9445;SDS011;4761;49.490;10.908;2023-07-09T04:43:34;5.15;;;4.70;;
9445;SDS011;4761;49.490;10.908;2023-07-09T04:46:00;5.70;;;5.20;;
9445;SDS011;4761;49.490;10.908;2023-07-09T04:48:25;5.70;;;5.20;;
9445;SDS011;4761;49.490;10.908;2023-07-09T04:50:51;6.13;;;5.35;;
9445;SDS011;4761;49.490;10.908;2023-07-09T04:53:17;5.88;;;5.00;;
9445;SDS011;4761;49.490;10.908;2023-07-09T04:55:43;5.75;;;5.22;;
9445;SDS011;4761;49.490;10.908;2023-07-09T04:58:09;5.32;;;4.93;;
9445;SDS011;4761;49.490;10.908;2023-07-09T05:00:34;5.10;;;4.60;;
9445;SDS011;4761;49.490;10.908;2023-07-09T05:03:00;5.22;;;4.72;;
9445;SDS011;4761;49.490;10.908;2023-07-09T05:05:25;5.72;;;5.22;;
9445;SDS011;4761;49.490;10.908;2023-07-09T05:07:51;5.32;;;4.82;;
9445;SDS011;4761;49.490;10.908;2023-07-09T05:10:16;6.03;;;5.47;;
9445;SDS011;4761;49.490;10.908;2023-07-09T05:12:52;5.32;;;4.82;;
9445;SDS011;4761;49.490;10.908;2023-07-09T05:15:20;5.18;;;4.78;;
9445;SDS011;4761;49.490;10.908;2023-07-09T05:17:47;5.93;;;4.80;;
9445;SDS011;4761;49.490;10.908;2023-07-09T05:20:13;5.60;;;5.10;;
9445;SDS011;4761;49.490;10.908;2023-07-09T05:22:40;5.75;;;5.25;;
9445;SDS011;4761;49.490;10.908;2023-07-09T05:25:06;6.18;;;5.57;;
9445;SDS011;4761;49.490;10.908;2023-07-09T05:27:32;5.95;;;5.35;;
9445;SDS011;4761;49.490;10.908;2023-07-09T05:29:57;5.15;;;4.50;;
9445;SDS011;4761;49.490;10.908;2023-07-09T05:32:23;5.70;;;5.20;;
9445;SDS011;4761;49.490;10.908;2023-07-09T05:34:49;6.15;;;5.55;;
9445;SDS011;4761;49.490;10.908;2023-07-09T05:37:14;5.72;;;5.20;;
9445;SDS011;4761;49.490;10.908;2023-07-09T05:39:40;5.63;;;5.13;;
9445;SDS011;4761;49.490;10.908;2023-07-09T05:42:06;6.00;;;5.45;;
9445;SDS011;4761;49.490;10.908;2023-07-09T05:44:32;6.30;;;5.47;;
9445;SDS011;4761;49.490;10.908;2023-07-09T05:46:57;6.30;;;5.20;;
9445;SDS011;4761;49.490;10.908;2023-07-09T05:49:23;5.97;;;5.40;;
9445;SDS011;4761;49.490;10.908;2023-07-09T05:51:48;5.93;;;5.43;;
9445;SDS011;4761;49.490;10.908;2023-07-09T05:54:14;5.72;;;5.13;;
9445;SDS011;4761;49.490;10.908;2023-07-09T05:56:39;5.88;;;5.20;;
9445;SDS011;4761;49.490;10.908;2023-07-09T05:59:05;5.53;;;5.03;;
9445;SDS011;4761;49.490;10.908;2023-07-09T06:01:30;6.70;;;5.57;;
9445;SDS011;4761;49.490;10.908;2023-07-09T06:03:56;6.47;;;5.78;;
9445;SDS011;4761;49.490;10.908;2023-07-09T06:06:22;5.90;;;5.30;;
9445;SDS011;4761;49.490;10.908;2023-07-09T06:08:48;7.50;;;5.72;;
9445;SDS011;4761;49.490;10.908;2023-07-09T06:11:15;5.65;;;5.15;;
9445;SDS011;4761;49.490;10.908;2023-07-09T06:13:42;6.20;;;5.60;;
9445;SDS011;4761;49.490;10.908;2023-07-09T06:16:08;7.10;;;5.53;;
9445;SDS011;4761;49.490;10.908;2023-07-09T06:18:33;6.30;;;5.70;;
9445;SDS011;4761;49.490;10.908;2023-07-09T06:20:59;5.82;;;5.32;;
9445;SDS011;4761;49.490;10.908;2023-07-09T06:23:26;5.50;;;5.00;;
9445;SDS011;4761;49.490;10.908;2023-07-09T06:25:52;5.57;;;5.07;;
9445;SDS011;4761;49.490;10.908;2023-07-09T06:28:20;5.75;;;5.25;;
9445;SDS011;4761;49.490;10.908;2023-07-09T06:30:47;5.53;;;5.05;;
9445;SDS011;4761;49.490;10.908;2023-07-09T06:33:14;5.30;;;4.80;;
9445;SDS011;4761;49.490;10.908;2023-07-09T06:35:50;5.55;;;5.05;;
9445;SDS011;4761;49.490;10.908;2023-07-09T06:38:17;6.03;;;5.35;;
9445;SDS011;4761;49.490;10.908;2023-07-09T06:40:43;5.55;;;5.05;;
9445;SDS011;4761;49.490;10.908;2023-07-09T06:43:09;5.13;;;4.72;;
9445;SDS011;4761;49.490;10.908;2023-07-09T06:45:35;5.38;;;4.88;;
9445;SDS011;4761;49.490;10.908;2023-07-09T06:48:00;5.60;;;4.90;;
9445;SDS011;4761;49.490;10.908;2023-07-09T06:50:26;5.07;;;4.68;;
9445;SDS011;4761;49.490;10.908;2023-07-09T06:52:52;5.72;;;5.22;;
9445;SDS011;4761;49.490;10.908;2023-07-09T06:55:17;5.00;;;4.60;;
9445;SDS011;4761;49.490;10.908;2023-07-09T06:57:43;5.53;;;4.78;;
9445;SDS011;4761;49.490;10.908;2023-07-09T07:00:08;5.38;;;4.88;;
9445;SDS011;4761;49.490;10.908;2023-07-09T07:02:34;4.85;;;4.45;;
9445;SDS011;4761;49.490;10.908;2023-07-09T07:05:00;5.45;;;4.95;;
9445;SDS011;4761;49.490;10.908;2023-07-09T07:07:26;5.47;;;4.97;;
9445;SDS011;4761;49.490;10.908;2023-07-09T07:09:51;5.03;;;4.60;;
9445;SDS011;4761;49.490;10.908;2023-07-09T07:12:27;5.13;;;4.72;;
9445;SDS011;4761;49.490;10.908;2023-07-09T07:14:54;5.05;;;4.55;;
9445;SDS011;4761;49.490;10.908;2023-07-09T07:17:21;4.95;;;4.22;;
9445;SDS011;4761;49.490;10.908;2023-07-09T07:19:47;4.63;;;4.22;;
9445;SDS011;4761;49.490;10.908;2023-07-09T07:22:14;5.05;;;4.65;;
9445;SDS011;4761;49.490;10.908;2023-07-09T07:24:40;4.32;;;3.92;;
9445;SDS011;4761;49.490;10.908;2023-07-09T07:27:07;4.57;;;4.18;;
9445;SDS011;4761;49.490;10.908;2023-07-09T07:29:33;4.60;;;4.20;;
9445;SDS011;4761;49.490;10.908;2023-07-09T07:31:58;4.38;;;3.97;;
9445;SDS011;4761;49.490;10.908;2023-07-09T07:34:25;4.53;;;4.13;;
9445;SDS011;4761;49.490;10.908;2023-07-09T07:36:51;4.22;;;3.92;;
9445;SDS011;4761;49.490;10.908;2023-07-09T07:39:16;4.32;;;3.92;;
9445;SDS011;4761;49.490;10.908;2023-07-09T07:41:42;4.47;;;4.07;;
9445;SDS011;4761;49.490;10.908;2023-07-09T07:44:07;4.07;;;3.78;;
9445;SDS011;4761;49.490;10.908;2023-07-09T07:46:33;4.38;;;3.97;;
9445;SDS011;4761;49.490;10.908;2023-07-09T07:48:59;4.18;;;3.88;;
9445;SDS011;4761;49.490;10.908;2023-07-09T07:51:25;4.40;;;4.00;;
9445;SDS011;4761;49.490;10.908;2023-07-09T07:53:50;4.22;;;3.88;;
9445;SDS011;4761;49.490;10.908;2023-07-09T07:56:16;4.35;;;3.97;;
9445;SDS011;4761;49.490;10.908;2023-07-09T07:58:42;4.40;;;4.00;;
9445;SDS011;4761;49.490;10.908;2023-07-09T08:01:08;4.25;;;3.85;;
9445;SDS011;4761;49.490;10.908;2023-07-09T08:03:33;3.85;;;3.55;;
9445;SDS011;4761;49.490;10.908;2023-07-09T08:05:59;3.95;;;3.65;;
9445;SDS011;4761;49.490;10.908;2023-07-09T08:08:25;3.78;;;3.47;;
9445;SDS011;4761;49.490;10.908;2023-07-09T08:10:50;3.90;;;3.60;;
9445;SDS011;4761;49.490;10.908;2023-07-09T08:13:16;4.15;;;3.75;;
9445;SDS011;4761;49.490;10.908;2023-07-09T08:15:42;3.65;;;3.35;;
9445;SDS011;4761;49.490;10.908;2023-07-09T08:18:07;3.88;;;3.58;;
9445;SDS011;4761;49.490;10.908;2023-07-09T08:20:33;3.55;;;3.25;;
9445;SDS011;4761;49.490;10.908;2023-07-09T08:22:58;3.97;;;3.67;;
9445;SDS011;4761;49.490;10.908;2023-07-09T08:25:24;3.80;;;3.40;;
9445;SDS011;4761;49.490;10.908;2023-07-09T08:27:50;3.60;;;3.30;;
9445;SDS011;4761;49.490;10.908;2023-07-09T08:30:15;3.65;;;3.35;;
9445;SDS011;4761;49.490;10.908;2023-07-09T08:32:41;3.50;;;3.20;;
9445;SDS011;4761;49.490;10.908;2023-07-09T08:35:06;3.65;;;3.35;;
9445;SDS011;4761;49.490;10.908;2023-07-09T08:37:35;3.90;;;3.60;;
9445;SDS011;4761;49.490;10.908;2023-07-09T08:40:00;3.45;;;3.15;;
9445;SDS011;4761;49.490;10.908;2023-07-09T08:42:31;3.45;;;3.15;;
9445;SDS011;4761;49.490;10.908;2023-07-09T08:45:07;3.65;;;3.35;;
9445;SDS011;4761;49.490;10.908;2023-07-09T08:50:45;3.45;;;3.15;;
9445;SDS011;4761;49.490;10.908;2023-07-09T08:53:19;3.35;;;3.00;;
9445;SDS011;4761;49.490;10.908;2023-07-09T08:55:48;3.47;;;3.17;;
9445;SDS011;4761;49.490;10.908;2023-07-09T08:58:26;3.40;;;3.13;;
9445;SDS011;4761;49.490;10.908;2023-07-09T09:06:21;3.50;;;3.20;;
9445;SDS011;4761;49.490;10.908;2023-07-09T09:16:52;3.22;;;2.85;;
9445;SDS011;4761;49.490;10.908;2023-07-09T09:19:32;3.50;;;3.20;;
9445;SDS011;4761;49.490;10.908;2023-07-09T09:22:07;3.50;;;3.20;;
9445;SDS011;4761;49.490;10.908;2023-07-09T09:24:43;2.90;;;2.70;;
9445;SDS011;4761;49.490;10.908;2023-07-09T09:27:41;3.05;;;2.42;;
9445;SDS011;4761;49.490;10.908;2023-07-09T09:30:15;2.45;;;2.25;;
9445;SDS011;4761;49.490;10.908;2023-07-09T09:32:43;2.40;;;2.20;;
9445;SDS011;4761;49.490;10.908;2023-07-09T09:35:11;2.30;;;2.20;;
9445;SDS011;4761;49.490;10.908;2023-07-09T09:37:44;2.50;;;2.30;;
9445;SDS011;4761;49.490;10.908;2023-07-09T09:40:17;2.35;;;2.17;;
9445;SDS011;4761;49.490;10.908;2023-07-09T09:42:47;2.08;;;1.80;;
9445;SDS011;4761;49.490;10.908;2023-07-09T09:45:17;2.40;;;2.20;;
9445;SDS011;4761;49.490;10.908;2023-07-09T09:47:45;2.38;;;2.13;;
9445;SDS011;4761;49.490;10.908;2023-07-09T09:50:19;2.30;;;2.10;;
9445;SDS011;4761;49.490;10.908;2023-07-09T09:52:46;1.80;;;1.70;;
9445;SDS011;4761;49.490;10.908;2023-07-09T09:55:17;1.95;;;1.85;;
9445;SDS011;4761;49.490;10.908;2023-07-09T09:57:52;1.90;;;1.80;;
9445;SDS011;4761;49.490;10.908;2023-07-09T10:00:23;1.98;;;1.88;;
9445;SDS011;4761;49.490;10.908;2023-07-09T10:02:55;2.50;;;2.30;;
9445;SDS011;4761;49.490;10.908;2023-07-09T10:05:25;2.28;;;2.08;;
9445;SDS011;4761;49.490;10.908;2023-07-09T10:08:03;2.15;;;2.00;;
9445;SDS011;4761;49.490;10.908;2023-07-09T10:10:29;1.92;;;1.83;;
9445;SDS011;4761;49.490;10.908;2023-07-09T10:13:43;2.00;;;1.90;;
9445;SDS011;4761;49.490;10.908;2023-07-09T10:21:31;2.40;;;2.20;;
9445;SDS011;4761;49.490;10.908;2023-07-09T10:26:56;2.25;;;2.05;;
9445;SDS011;4761;49.490;10.908;2023-07-09T10:29:42;2.00;;;1.90;;
9445;SDS011;4761;49.490;10.908;2023-07-09T10:32:24;2.00;;;1.80;;
9445;SDS011;4761;49.490;10.908;2023-07-09T10:35:03;1.90;;;1.80;;
9445;SDS011;4761;49.490;10.908;2023-07-09T10:38:02;2.17;;;1.98;;
9445;SDS011;4761;49.490;10.908;2023-07-09T10:40:42;1.92;;;1.83;;
9445;SDS011;4761;49.490;10.908;2023-07-09T10:43:19;2.35;;;2.15;;
9445;SDS011;4761;49.490;10.908;2023-07-09T10:45:53;1.40;;;1.30;;
9445;SDS011;4761;49.490;10.908;2023-07-09T10:48:34;1.98;;;1.88;;
9445;SDS011;4761;49.490;10.908;2023-07-09T10:51:03;1.50;;;1.40;;
9445;SDS011;4761;49.490;10.908;2023-07-09T10:53:36;1.70;;;1.60;;
9445;SDS011;4761;49.490;10.908;2023-07-09T10:56:11;1.95;;;1.80;;
9445;SDS011;4761;49.490;10.908;2023-07-09T10:58:45;2.30;;;2.10;;
9445;SDS011;4761;49.490;10.908;2023-07-09T11:01:40;2.22;;;2.13;;
9445;SDS011;4761;49.490;10.908;2023-07-09T11:04:10;1.98;;;1.77;;
9445;SDS011;4761;49.490;10.908;2023-07-09T11:06:46;2.15;;;2.00;;
9445;SDS011;4761;49.490;10.908;2023-07-09T11:09:29;1.98;;;1.88;;
9445;SDS011;4761;49.490;10.908;2023-07-09T11:11:58;1.50;;;1.40;;
9445;SDS011;4761;49.490;10.908;2023-07-09T11:17:03;1.90;;;1.80;;
9445;SDS011;4761;49.490;10.908;2023-07-09T11:19:32;2.05;;;1.85;;
9445;SDS011;4761;49.490;10.908;2023-07-09T11:22:05;1.80;;;1.70;;
9445;SDS011;4761;49.490;10.908;2023-07-09T11:24:49;2.17;;;1.98;;
9445;SDS011;4761;49.490;10.908;2023-07-09T11:27:44;2.00;;;1.90;;
9445;SDS011;4761;49.490;10.908;2023-07-09T11:32:56;2.33;;;2.13;;
9445;SDS011;4761;49.490;10.908;2023-07-09T11:35:45;2.20;;;2.00;;
9445;SDS011;4761;49.490;10.908;2023-07-09T11:38:20;2.05;;;1.90;;
9445;SDS011;4761;49.490;10.908;2023-07-09T11:40:49;1.85;;;1.75;;
9445;SDS011;4761;49.490;10.908;2023-07-09T11:43:31;2.10;;;1.90;;
9445;SDS011;4761;49.490;10.908;2023-07-09T11:46:07;2.05;;;1.95;;
9445;SDS011;4761;49.490;10.908;2023-07-09T11:48:54;1.95;;;1.80;;
9445;SDS011;4761;49.490;10.908;2023-07-09T11:51:23;1.67;;;1.58;;
9445;SDS011;4761;49.490;10.908;2023-07-09T11:54:02;1.45;;;1.35;;
9445;SDS011;4761;49.490;10.908;2023-07-09T11:56:28;1.95;;;1.77;;
9445;SDS011;4761;49.490;10.908;2023-07-09T11:58:55;1.77;;;1.67;;
9445;SDS011;4761;49.490;10.908;2023-07-09T12:01:34;1.90;;;1.80;;
9445;SDS011;4761;49.490;10.908;2023-07-09T12:04:07;2.00;;;1.90;;
9445;SDS011;4761;49.490;10.908;2023-07-09T12:06:38;1.95;;;1.85;;
9445;SDS011;4761;49.490;10.908;2023-07-09T12:09:05;1.70;;;1.60;;
9445;SDS011;4761;49.490;10.908;2023-07-09T12:11:32;1.98;;;1.88;;
9445;SDS011;4761;49.490;10.908;2023-07-09T12:14:03;1.58;;;1.48;;
9445;SDS011;4761;49.490;10.908;2023-07-09T12:16:36;1.80;;;1.60;;
9445;SDS011;4761;49.490;10.908;2023-07-09T12:19:04;1.90;;;1.80;;
9445;SDS011;4761;49.490;10.908;2023-07-09T12:21:30;2.10;;;1.90;;
9445;SDS011;4761;49.490;10.908;2023-07-09T12:23:59;2.10;;;1.90;;
9445;SDS011;4761;49.490;10.908;2023-07-09T12:26:24;1.67;;;1.58;;
9445;SDS011;4761;49.490;10.908;2023-07-09T12:28:56;1.95;;;1.77;;
9445;SDS011;4761;49.490;10.908;2023-07-09T12:31:27;1.90;;;1.80;;
9445;SDS011;4761;49.490;10.908;2023-07-09T12:33:55;1.63;;;1.52;;
9445;SDS011;4761;49.490;10.908;2023-07-09T12:36:22;1.80;;;1.70;;
9445;SDS011;4761;49.490;10.908;2023-07-09T12:38:50;1.90;;;1.80;;
9445;SDS011;4761;49.490;10.908;2023-07-09T12:41:19;1.70;;;1.60;;
9445;SDS011;4761;49.490;10.908;2023-07-09T12:43:48;1.67;;;1.58;;
9445;SDS011;4761;49.490;10.908;2023-07-09T12:46:14;1.70;;;1.60;;
9445;SDS011;4761;49.490;10.908;2023-07-09T12:48:40;2.38;;;1.90;;
9445;SDS011;4761;49.490;10.908;2023-07-09T12:51:06;1.80;;;1.70;;
9445;SDS011;4761;49.490;10.908;2023-07-09T12:53:33;1.88;;;1.77;;
9445;SDS011;4761;49.490;10.908;2023-07-09T12:56:01;1.80;;;1.70;;
9445;SDS011;4761;49.490;10.908;2023-07-09T12:58:30;1.90;;;1.80;;
9445;SDS011;4761;49.490;10.908;2023-07-09T13:00:59;1.80;;;1.70;;
9445;SDS011;4761;49.490;10.908;2023-07-09T13:03:30;2.00;;;1.80;;
9445;SDS011;4761;49.490;10.908;2023-07-09T13:05:58;1.88;;;1.77;;
9445;SDS011;4761;49.490;10.908;2023-07-09T13:08:26;1.65;;;1.55;;
9445;SDS011;4761;49.490;10.908;2023-07-09T13:10:53;1.60;;;1.50;;
9445;SDS011;4761;49.490;10.908;2023-07-09T13:13:20;1.60;;;1.50;;
9445;SDS011;4761;49.490;10.908;2023-07-09T13:16:08;1.88;;;1.77;;
9445;SDS011;4761;49.490;10.908;2023-07-09T13:18:32;1.80;;;1.67;;
9445;SDS011;4761;49.490;10.908;2023-07-09T13:20:58;1.90;;;1.70;;
9445;SDS011;4761;49.490;10.908;2023-07-09T13:23:26;1.80;;;1.70;;
9445;SDS011;4761;49.490;10.908;2023-07-09T13:25:53;1.92;;;1.73;;
9445;SDS011;4761;49.490;10.908;2023-07-09T13:28:28;1.90;;;1.70;;
9445;SDS011;4761;49.490;10.908;2023-07-09T13:31:17;1.70;;;1.60;;
9445;SDS011;4761;49.490;10.908;2023-07-09T13:33:43;1.50;;;1.40;;
9445;SDS011;4761;49.490;10.908;2023-07-09T13:36:09;1.80;;;1.70;;
9445;SDS011;4761;49.490;10.908;2023-07-09T13:38:35;3.30;;;1.80;;
9445;SDS011;4761;49.490;10.908;2023-07-09T13:41:14;1.90;;;1.80;;
9445;SDS011;4761;49.490;10.908;2023-07-09T13:43:42;1.60;;;1.50;;
9445;SDS011;4761;49.490;10.908;2023-07-09T13:46:10;1.60;;;1.50;;
9445;SDS011;4761;49.490;10.908;2023-07-09T13:48:36;1.50;;;1.40;;
9445;SDS011;4761;49.490;10.908;2023-07-09T13:51:13;1.92;;;1.77;;
9445;SDS011;4761;49.490;10.908;2023-07-09T13:53:44;1.80;;;1.70;;
9445;SDS011;4761;49.490;10.908;2023-07-09T13:56:09;2.10;;;1.67;;
9445;SDS011;4761;49.490;10.908;2023-07-09T13:58:35;1.77;;;1.65;;
9445;SDS011;4761;49.490;10.908;2023-07-09T14:01:09;1.80;;;1.70;;
9445;SDS011;4761;49.490;10.908;2023-07-09T14:03:54;2.10;;;1.90;;
9445;SDS011;4761;49.490;10.908;2023-07-09T14:06:23;1.60;;;1.50;;
9445;SDS011;4761;49.490;10.908;2023-07-09T14:08:48;1.65;;;1.55;;
9445;SDS011;4761;49.490;10.908;2023-07-09T14:11:15;2.05;;;1.83;;
9445;SDS011;4761;49.490;10.908;2023-07-09T14:13:41;1.67;;;1.58;;
9445;SDS011;4761;49.490;10.908;2023-07-09T14:16:11;1.60;;;1.50;;
9445;SDS011;4761;49.490;10.908;2023-07-09T14:18:37;2.00;;;1.85;;
9445;SDS011;4761;49.490;10.908;2023-07-09T14:21:23;1.50;;;1.40;;
9445;SDS011;4761;49.490;10.908;2023-07-09T14:23:51;1.70;;;1.60;;
9445;SDS011;4761;49.490;10.908;2023-07-09T14:26:18;1.70;;;1.60;;
9445;SDS011;4761;49.490;10.908;2023-07-09T14:28:43;1.88;;;1.75;;
9445;SDS011;4761;49.490;10.908;2023-07-09T14:31:13;1.50;;;1.40;;
9445;SDS011;4761;49.490;10.908;2023-07-09T14:33:51;1.70;;;1.60;;
9445;SDS011;4761;49.490;10.908;2023-07-09T14:36:16;1.90;;;1.73;;
9445;SDS011;4761;49.490;10.908;2023-07-09T14:38:42;1.70;;;1.60;;
9445;SDS011;4761;49.490;10.908;2023-07-09T14:41:17;1.63;;;1.52;;
9445;SDS011;4761;49.490;10.908;2023-07-09T14:43:47;1.60;;;1.50;;
9445;SDS011;4761;49.490;10.908;2023-07-09T14:46:13;1.83;;;1.73;;
9445;SDS011;4761;49.490;10.908;2023-07-09T14:48:39;1.83;;;1.70;;
9445;SDS011;4761;49.490;10.908;2023-07-09T14:51:11;1.63;;;1.52;;
9445;SDS011;4761;49.490;10.908;2023-07-09T14:53:39;1.63;;;1.52;;
9445;SDS011;4761;49.490;10.908;2023-07-09T14:56:04;1.60;;;1.50;;
9445;SDS011;4761;49.490;10.908;2023-07-09T14:58:30;1.70;;;1.60;;
9445;SDS011;4761;49.490;10.908;2023-07-09T15:00:55;1.92;;;1.80;;
9445;SDS011;4761;49.490;10.908;2023-07-09T15:03:25;1.70;;;1.60;;
9445;SDS011;4761;49.490;10.908;2023-07-09T15:05:52;2.05;;;1.92;;
9445;SDS011;4761;49.490;10.908;2023-07-09T15:08:20;1.75;;;1.63;;
9445;SDS011;4761;49.490;10.908;2023-07-09T15:10:47;1.70;;;1.60;;
9445;SDS011;4761;49.490;10.908;2023-07-09T15:15:43;1.88;;;1.77;;
9445;SDS011;4761;49.490;10.908;2023-07-09T15:18:10;1.80;;;1.70;;
9445;SDS011;4761;49.490;10.908;2023-07-09T15:20:37;2.08;;;1.73;;
9445;SDS011;4761;49.490;10.908;2023-07-09T15:23:04;2.08;;;1.95;;
9445;SDS011;4761;49.490;10.908;2023-07-09T15:25:30;1.75;;;1.65;;
9445;SDS011;4761;49.490;10.908;2023-07-09T15:27:56;1.77;;;1.67;;
9445;SDS011;4761;49.490;10.908;2023-07-09T15:30:23;1.70;;;1.60;;
9445;SDS011;4761;49.490;10.908;2023-07-09T15:32:50;1.60;;;1.50;;
9445;SDS011;4761;49.490;10.908;2023-07-09T15:35:17;1.63;;;1.52;;
9445;SDS011;4761;49.490;10.908;2023-07-09T15:37:44;1.70;;;1.60;;
9445;SDS011;4761;49.490;10.908;2023-07-09T15:42:49;1.50;;;1.40;;
9445;SDS011;4761;49.490;10.908;2023-07-09T15:45:19;1.65;;;1.55;;
9445;SDS011;4761;49.490;10.908;2023-07-09T15:47:46;1.60;;;1.50;;